sensor_id;sensor_type;location;lat;lon;timestamp;P1;durP1;ratioP1;P2;durP2;ratioP2
11651;SDS011;5882;48.818;9.114;2022-11-15T00:02:07;1.50;;;1.40;;
11651;SDS011;5882;48.818;9.114;2022-11-15T00:04:34;1.48;;;1.38;;
11651;SDS011;5882;48.818;9.114;2022-11-15T00:07:01;1.55;;;1.45;;
11651;SDS011;5882;48.818;9.114;2022-11-15T00:09:27;1.50;;;1.40;;
11651;SDS011;5882;48.818;9.114;2022-11-15T00:11:57;2.85;;;2.28;;
11651;SDS011;5882;48.818;9.114;2022-11-15T00:14:26;1.23;;;1.15;;
11651;SDS011;5882;48.818;9.114;2022-11-15T00:16:53;1.75;;;1.58;;
11651;SDS011;5882;48.818;9.114;2022-11-15T00:19:20;3.25;;;1.73;;
11651;SDS011;5882;48.818;9.114;2022-11-15T00:21:46;1.50;;;1.40;;
11651;SDS011;5882;48.818;9.114;2022-11-15T00:24:13;2.83;;;1.40;;
11651;SDS011;5882;48.818;9.114;2022-11-15T00:26:40;1.40;;;1.30;;
11651;SDS011;5882;48.818;9.114;2022-11-15T00:29:08;1.35;;;1.25;;
11651;SDS011;5882;48.818;9.114;2022-11-15T00:31:34;1.77;;;1.67;;
11651;SDS011;5882;48.818;9.114;2022-11-15T00:34:01;1.50;;;1.40;;
11651;SDS011;5882;48.818;9.114;2022-11-15T00:36:27;1.50;;;1.40;;
11651;SDS011;5882;48.818;9.114;2022-11-15T00:38:54;2.15;;;1.55;;
11651;SDS011;5882;48.818;9.114;2022-11-15T00:41:23;1.48;;;1.38;;
11651;SDS011;5882;48.818;9.114;2022-11-15T00:43:49;2.00;;;1.67;;
11651;SDS011;5882;48.818;9.114;2022-11-15T00:46:18;2.15;;;1.77;;
11651;SDS011;5882;48.818;9.114;2022-11-15T00:48:44;1.55;;;1.45;;
11651;SDS011;5882;48.818;9.114;2022-11-15T00:51:11;1.73;;;1.63;;
11651;SDS011;5882;48.818;9.114;2022-11-15T00:53:37;1.80;;;1.50;;
11651;SDS011;5882;48.818;9.114;2022-11-15T00:56:04;1.67;;;1.58;;
11651;SDS011;5882;48.818;9.114;2022-11-15T00:58:31;1.30;;;1.20;;
11651;SDS011;5882;48.818;9.114;2022-11-15T01:01:04;2.92;;;1.70;;
11651;SDS011;5882;48.818;9.114;2022-11-15T01:03:33;1.40;;;1.30;;
11651;SDS011;5882;48.818;9.114;2022-11-15T01:06:00;1.50;;;1.40;;
11651;SDS011;5882;48.818;9.114;2022-11-15T01:08:27;1.55;;;1.45;;
11651;SDS011;5882;48.818;9.114;2022-11-15T01:10:53;1.50;;;1.40;;
11651;SDS011;5882;48.818;9.114;2022-11-15T01:13:20;1.42;;;1.33;;
11651;SDS011;5882;48.818;9.114;2022-11-15T01:15:46;1.40;;;1.30;;
11651;SDS011;5882;48.818;9.114;2022-11-15T01:18:16;1.38;;;1.27;;
11651;SDS011;5882;48.818;9.114;2022-11-15T01:20:44;1.67;;;1.58;;
11651;SDS011;5882;48.818;9.114;2022-11-15T01:23:10;1.63;;;1.40;;
11651;SDS011;5882;48.818;9.114;2022-11-15T01:25:37;2.45;;;1.65;;
11651;SDS011;5882;48.818;9.114;2022-11-15T01:28:03;1.58;;;1.40;;
11651;SDS011;5882;48.818;9.114;2022-11-15T01:30:30;2.50;;;1.70;;
11651;SDS011;5882;48.818;9.114;2022-11-15T01:32:56;2.05;;;1.70;;
11651;SDS011;5882;48.818;9.114;2022-11-15T01:35:23;2.97;;;1.58;;
11651;SDS011;5882;48.818;9.114;2022-11-15T01:37:51;1.50;;;1.40;;
11651;SDS011;5882;48.818;9.114;2022-11-15T01:40:17;5.57;;;1.50;;
11651;SDS011;5882;48.818;9.114;2022-11-15T01:43:19;1.83;;;1.45;;
11651;SDS011;5882;48.818;9.114;2022-11-15T01:46:25;1.40;;;1.30;;
11651;SDS011;5882;48.818;9.114;2022-11-15T01:48:39;1.90;;;1.63;;
11651;SDS011;5882;48.818;9.114;2022-11-15T01:51:06;1.60;;;1.35;;
11651;SDS011;5882;48.818;9.114;2022-11-15T01:53:35;1.50;;;1.40;;
11651;SDS011;5882;48.818;9.114;2022-11-15T01:56:02;1.92;;;1.50;;
11651;SDS011;5882;48.818;9.114;2022-11-15T01:58:30;1.40;;;1.30;;
11651;SDS011;5882;48.818;9.114;2022-11-15T02:00:57;1.70;;;1.60;;
11651;SDS011;5882;48.818;9.114;2022-11-15T02:03:26;1.33;;;1.23;;
11651;SDS011;5882;48.818;9.114;2022-11-15T02:05:53;1.73;;;1.50;;
11651;SDS011;5882;48.818;9.114;2022-11-15T02:08:20;1.50;;;1.40;;
11651;SDS011;5882;48.818;9.114;2022-11-15T02:10:48;1.50;;;1.40;;
11651;SDS011;5882;48.818;9.114;2022-11-15T02:13:14;1.40;;;1.30;;
11651;SDS011;5882;48.818;9.114;2022-11-15T02:15:44;1.77;;;1.48;;
11651;SDS011;5882;48.818;9.114;2022-11-15T02:18:15;1.70;;;1.58;;
11651;SDS011;5882;48.818;9.114;2022-11-15T02:20:58;2.05;;;1.48;;
11651;SDS011;5882;48.818;9.114;2022-11-15T02:26:24;1.50;;;1.40;;
11651;SDS011;5882;48.818;9.114;2022-11-15T02:28:57;1.60;;;1.50;;
11651;SDS011;5882;48.818;9.114;2022-11-15T02:31:27;1.35;;;1.25;;
11651;SDS011;5882;48.818;9.114;2022-11-15T02:33:59;4.13;;;1.98;;
11651;SDS011;5882;48.818;9.114;2022-11-15T02:36:30;2.00;;;1.42;;
11651;SDS011;5882;48.818;9.114;2022-11-15T02:39:02;2.63;;;1.55;;
11651;SDS011;5882;48.818;9.114;2022-11-15T02:41:30;1.80;;;1.70;;
11651;SDS011;5882;48.818;9.114;2022-11-15T02:44:02;1.77;;;1.60;;
11651;SDS011;5882;48.818;9.114;2022-11-15T02:46:33;2.15;;;1.95;;
11651;SDS011;5882;48.818;9.114;2022-11-15T02:49:19;2.58;;;2.20;;
11651;SDS011;5882;48.818;9.114;2022-11-15T02:51:46;3.10;;;2.50;;
11651;SDS011;5882;48.818;9.114;2022-11-15T02:54:15;3.92;;;2.40;;
11651;SDS011;5882;48.818;9.114;2022-11-15T02:56:43;3.55;;;2.67;;
11651;SDS011;5882;48.818;9.114;2022-11-15T02:59:13;2.42;;;1.98;;
11651;SDS011;5882;48.818;9.114;2022-11-15T03:01:50;1.98;;;1.70;;
11651;SDS011;5882;48.818;9.114;2022-11-15T03:04:23;2.50;;;2.30;;
11651;SDS011;5882;48.818;9.114;2022-11-15T03:06:56;2.55;;;1.92;;
11651;SDS011;5882;48.818;9.114;2022-11-15T03:09:26;2.03;;;1.63;;
11651;SDS011;5882;48.818;9.114;2022-11-15T03:11:56;2.47;;;1.80;;
11651;SDS011;5882;48.818;9.114;2022-11-15T03:14:25;2.33;;;2.13;;
11651;SDS011;5882;48.818;9.114;2022-11-15T03:16:58;2.65;;;1.98;;
11651;SDS011;5882;48.818;9.114;2022-11-15T03:19:27;1.63;;;1.50;;
11651;SDS011;5882;48.818;9.114;2022-11-15T03:21:55;4.20;;;2.00;;
11651;SDS011;5882;48.818;9.114;2022-11-15T03:24:23;2.00;;;1.80;;
11651;SDS011;5882;48.818;9.114;2022-11-15T03:26:51;2.85;;;1.67;;
11651;SDS011;5882;48.818;9.114;2022-11-15T03:29:19;2.70;;;1.65;;
11651;SDS011;5882;48.818;9.114;2022-11-15T03:31:50;1.70;;;1.60;;
11651;SDS011;5882;48.818;9.114;2022-11-15T03:34:20;2.08;;;1.83;;
11651;SDS011;5882;48.818;9.114;2022-11-15T03:36:48;1.60;;;1.50;;
11651;SDS011;5882;48.818;9.114;2022-11-15T03:39:16;2.10;;;1.50;;
11651;SDS011;5882;48.818;9.114;2022-11-15T03:41:43;1.77;;;1.65;;
11651;SDS011;5882;48.818;9.114;2022-11-15T03:44:13;1.50;;;1.40;;
11651;SDS011;5882;48.818;9.114;2022-11-15T03:46:44;1.52;;;1.33;;
11651;SDS011;5882;48.818;9.114;2022-11-15T03:49:14;1.58;;;1.48;;
11651;SDS011;5882;48.818;9.114;2022-11-15T03:51:43;1.80;;;1.40;;
11651;SDS011;5882;48.818;9.114;2022-11-15T03:54:11;2.45;;;1.50;;
11651;SDS011;5882;48.818;9.114;2022-11-15T03:56:38;1.60;;;1.35;;
11651;SDS011;5882;48.818;9.114;2022-11-15T03:59:05;1.52;;;1.42;;
11651;SDS011;5882;48.818;9.114;2022-11-15T04:01:31;1.50;;;1.40;;
11651;SDS011;5882;48.818;9.114;2022-11-15T04:03:58;1.48;;;1.38;;
11651;SDS011;5882;48.818;9.114;2022-11-15T04:06:28;3.85;;;1.50;;
11651;SDS011;5882;48.818;9.114;2022-11-15T04:08:56;2.22;;;1.60;;
11651;SDS011;5882;48.818;9.114;2022-11-15T04:11:22;1.40;;;1.30;;
11651;SDS011;5882;48.818;9.114;2022-11-15T04:13:49;2.85;;;1.67;;
11651;SDS011;5882;48.818;9.114;2022-11-15T04:16:15;1.88;;;1.65;;
11651;SDS011;5882;48.818;9.114;2022-11-15T04:18:42;1.40;;;1.30;;
11651;SDS011;5882;48.818;9.114;2022-11-15T04:21:09;1.45;;;1.33;;
11651;SDS011;5882;48.818;9.114;2022-11-15T04:24:09;1.50;;;1.38;;
11651;SDS011;5882;48.818;9.114;2022-11-15T04:26:38;1.42;;;1.33;;
11651;SDS011;5882;48.818;9.114;2022-11-15T04:29:05;1.70;;;1.60;;
11651;SDS011;5882;48.818;9.114;2022-11-15T04:31:49;1.60;;;1.50;;
11651;SDS011;5882;48.818;9.114;2022-11-15T04:34:15;1.58;;;1.42;;
11651;SDS011;5882;48.818;9.114;2022-11-15T04:36:44;1.73;;;1.60;;
11651;SDS011;5882;48.818;9.114;2022-11-15T04:39:29;1.80;;;1.70;;
11651;SDS011;5882;48.818;9.114;2022-11-15T04:41:56;1.95;;;1.50;;
11651;SDS011;5882;48.818;9.114;2022-11-15T04:44:23;1.40;;;1.30;;
11651;SDS011;5882;48.818;9.114;2022-11-15T04:46:49;1.65;;;1.55;;
11651;SDS011;5882;48.818;9.114;2022-11-15T04:49:16;1.50;;;1.30;;
11651;SDS011;5882;48.818;9.114;2022-11-15T04:51:43;1.48;;;1.38;;
11651;SDS011;5882;48.818;9.114;2022-11-15T04:54:09;1.50;;;1.40;;
11651;SDS011;5882;48.818;9.114;2022-11-15T04:56:38;2.25;;;1.65;;
11651;SDS011;5882;48.818;9.114;2022-11-15T04:59:04;1.30;;;1.25;;
11651;SDS011;5882;48.818;9.114;2022-11-15T05:01:31;1.40;;;1.30;;
11651;SDS011;5882;48.818;9.114;2022-11-15T05:03:58;1.52;;;1.33;;
11651;SDS011;5882;48.818;9.114;2022-11-15T05:06:42;2.00;;;1.80;;
11651;SDS011;5882;48.818;9.114;2022-11-15T05:09:08;1.50;;;1.40;;
11651;SDS011;5882;48.818;9.114;2022-11-15T05:11:35;1.60;;;1.50;;
11651;SDS011;5882;48.818;9.114;2022-11-15T05:14:03;1.77;;;1.67;;
11651;SDS011;5882;48.818;9.114;2022-11-15T05:16:30;2.00;;;1.80;;
11651;SDS011;5882;48.818;9.114;2022-11-15T05:18:57;1.60;;;1.50;;
11651;SDS011;5882;48.818;9.114;2022-11-15T05:21:25;1.60;;;1.50;;
11651;SDS011;5882;48.818;9.114;2022-11-15T05:23:57;1.92;;;1.77;;
11651;SDS011;5882;48.818;9.114;2022-11-15T05:26:24;1.55;;;1.35;;
11651;SDS011;5882;48.818;9.114;2022-11-15T05:28:52;1.45;;;1.35;;
11651;SDS011;5882;48.818;9.114;2022-11-15T05:31:25;1.33;;;1.20;;
11651;SDS011;5882;48.818;9.114;2022-11-15T05:33:52;1.75;;;1.52;;
11651;SDS011;5882;48.818;9.114;2022-11-15T05:36:21;1.65;;;1.55;;
11651;SDS011;5882;48.818;9.114;2022-11-15T05:38:50;1.60;;;1.45;;
11651;SDS011;5882;48.818;9.114;2022-11-15T05:41:17;1.88;;;1.55;;
11651;SDS011;5882;48.818;9.114;2022-11-15T05:43:44;1.50;;;1.40;;
11651;SDS011;5882;48.818;9.114;2022-11-15T05:46:12;1.30;;;1.20;;
11651;SDS011;5882;48.818;9.114;2022-11-15T05:48:41;1.48;;;1.38;;
11651;SDS011;5882;48.818;9.114;2022-11-15T05:51:09;1.20;;;1.20;;
11651;SDS011;5882;48.818;9.114;2022-11-15T05:53:36;1.70;;;1.60;;
11651;SDS011;5882;48.818;9.114;2022-11-15T05:56:03;1.75;;;1.52;;
11651;SDS011;5882;48.818;9.114;2022-11-15T05:58:30;1.00;;;1.00;;
11651;SDS011;5882;48.818;9.114;2022-11-15T06:00:57;1.77;;;1.58;;
11651;SDS011;5882;48.818;9.114;2022-11-15T06:03:25;2.15;;;1.60;;
11651;SDS011;5882;48.818;9.114;2022-11-15T06:05:53;1.40;;;1.30;;
11651;SDS011;5882;48.818;9.114;2022-11-15T06:08:19;3.22;;;1.70;;
11651;SDS011;5882;48.818;9.114;2022-11-15T06:11:05;1.50;;;1.40;;
11651;SDS011;5882;48.818;9.114;2022-11-15T06:13:51;2.60;;;1.70;;
11651;SDS011;5882;48.818;9.114;2022-11-15T06:16:18;4.35;;;1.55;;
11651;SDS011;5882;48.818;9.114;2022-11-15T06:18:44;1.70;;;1.30;;
11651;SDS011;5882;48.818;9.114;2022-11-15T06:21:12;1.35;;;1.30;;
11651;SDS011;5882;48.818;9.114;2022-11-15T06:23:39;1.23;;;1.13;;
11651;SDS011;5882;48.818;9.114;2022-11-15T06:26:05;1.60;;;1.50;;
11651;SDS011;5882;48.818;9.114;2022-11-15T06:28:32;1.38;;;1.27;;
11651;SDS011;5882;48.818;9.114;2022-11-15T06:31:01;2.30;;;1.70;;
11651;SDS011;5882;48.818;9.114;2022-11-15T06:33:28;2.83;;;1.73;;
11651;SDS011;5882;48.818;9.114;2022-11-15T06:35:59;1.60;;;1.50;;
11651;SDS011;5882;48.818;9.114;2022-11-15T06:38:27;2.83;;;1.35;;
11651;SDS011;5882;48.818;9.114;2022-11-15T06:40:54;1.60;;;1.50;;
11651;SDS011;5882;48.818;9.114;2022-11-15T06:43:20;1.30;;;1.20;;
11651;SDS011;5882;48.818;9.114;2022-11-15T06:45:47;1.30;;;1.20;;
11651;SDS011;5882;48.818;9.114;2022-11-15T06:48:13;1.38;;;1.20;;
11651;SDS011;5882;48.818;9.114;2022-11-15T06:50:40;1.48;;;1.38;;
11651;SDS011;5882;48.818;9.114;2022-11-15T06:53:07;1.95;;;1.50;;
11651;SDS011;5882;48.818;9.114;2022-11-15T06:55:35;1.65;;;1.40;;
11651;SDS011;5882;48.818;9.114;2022-11-15T06:58:01;1.40;;;1.20;;
11651;SDS011;5882;48.818;9.114;2022-11-15T07:00:28;1.63;;;1.52;;
11651;SDS011;5882;48.818;9.114;2022-11-15T07:02:55;1.70;;;1.33;;
11651;SDS011;5882;48.818;9.114;2022-11-15T07:05:25;1.38;;;1.27;;
11651;SDS011;5882;48.818;9.114;2022-11-15T07:07:55;1.52;;;1.35;;
11651;SDS011;5882;48.818;9.114;2022-11-15T07:10:22;1.55;;;1.45;;
11651;SDS011;5882;48.818;9.114;2022-11-15T07:12:54;1.60;;;1.30;;
11651;SDS011;5882;48.818;9.114;2022-11-15T07:15:23;1.42;;;1.33;;
11651;SDS011;5882;48.818;9.114;2022-11-15T07:17:50;1.02;;;1.02;;
11651;SDS011;5882;48.818;9.114;2022-11-15T07:20:17;2.78;;;1.63;;
11651;SDS011;5882;48.818;9.114;2022-11-15T07:22:44;2.05;;;1.90;;
11651;SDS011;5882;48.818;9.114;2022-11-15T07:25:13;8.52;;;5.13;;
11651;SDS011;5882;48.818;9.114;2022-11-15T07:27:40;8.18;;;6.05;;
11651;SDS011;5882;48.818;9.114;2022-11-15T07:30:09;9.35;;;6.65;;
11651;SDS011;5882;48.818;9.114;2022-11-15T07:32:35;5.78;;;5.07;;
11651;SDS011;5882;48.818;9.114;2022-11-15T07:35:02;3.08;;;2.40;;
11651;SDS011;5882;48.818;9.114;2022-11-15T07:37:32;1.90;;;1.70;;
11651;SDS011;5882;48.818;9.114;2022-11-15T07:39:59;1.70;;;1.52;;
11651;SDS011;5882;48.818;9.114;2022-11-15T07:42:25;1.70;;;1.58;;
11651;SDS011;5882;48.818;9.114;2022-11-15T07:45:11;1.63;;;1.45;;
11651;SDS011;5882;48.818;9.114;2022-11-15T07:47:38;2.58;;;1.60;;
11651;SDS011;5882;48.818;9.114;2022-11-15T07:50:05;3.17;;;1.48;;
11651;SDS011;5882;48.818;9.114;2022-11-15T07:52:32;2.15;;;1.73;;
11651;SDS011;5882;48.818;9.114;2022-11-15T07:54:58;2.60;;;1.60;;
11651;SDS011;5882;48.818;9.114;2022-11-15T07:57:25;1.48;;;1.38;;
11651;SDS011;5882;48.818;9.114;2022-11-15T07:59:51;1.92;;;1.50;;
11651;SDS011;5882;48.818;9.114;2022-11-15T08:02:19;1.88;;;1.77;;
11651;SDS011;5882;48.818;9.114;2022-11-15T08:04:47;1.50;;;1.38;;
11651;SDS011;5882;48.818;9.114;2022-11-15T08:07:14;1.40;;;1.30;;
11651;SDS011;5882;48.818;9.114;2022-11-15T08:09:42;1.80;;;1.40;;
11651;SDS011;5882;48.818;9.114;2022-11-15T08:12:09;1.13;;;1.10;;
11651;SDS011;5882;48.818;9.114;2022-11-15T08:14:35;1.60;;;1.50;;
11651;SDS011;5882;48.818;9.114;2022-11-15T08:17:02;1.73;;;1.40;;
11651;SDS011;5882;48.818;9.114;2022-11-15T08:19:30;3.05;;;1.60;;
11651;SDS011;5882;48.818;9.114;2022-11-15T08:21:57;2.88;;;1.90;;
11651;SDS011;5882;48.818;9.114;2022-11-15T08:24:24;1.70;;;1.60;;
11651;SDS011;5882;48.818;9.114;2022-11-15T08:26:52;1.35;;;1.20;;
11651;SDS011;5882;48.818;9.114;2022-11-15T08:29:19;1.50;;;1.40;;
11651;SDS011;5882;48.818;9.114;2022-11-15T08:31:46;1.33;;;1.17;;
11651;SDS011;5882;48.818;9.114;2022-11-15T08:34:12;1.40;;;1.30;;
11651;SDS011;5882;48.818;9.114;2022-11-15T08:36:40;3.47;;;1.52;;
11651;SDS011;5882;48.818;9.114;2022-11-15T08:39:09;1.30;;;1.17;;
11651;SDS011;5882;48.818;9.114;2022-11-15T08:41:36;5.47;;;1.80;;
11651;SDS011;5882;48.818;9.114;2022-11-15T08:44:03;4.20;;;1.35;;
11651;SDS011;5882;48.818;9.114;2022-11-15T08:46:32;1.48;;;1.13;;
11651;SDS011;5882;48.818;9.114;2022-11-15T08:48:58;2.72;;;1.60;;
11651;SDS011;5882;48.818;9.114;2022-11-15T08:51:25;1.40;;;1.30;;
11651;SDS011;5882;48.818;9.114;2022-11-15T08:53:54;1.33;;;1.23;;
11651;SDS011;5882;48.818;9.114;2022-11-15T08:56:22;1.63;;;1.52;;
11651;SDS011;5882;48.818;9.114;2022-11-15T08:58:49;2.97;;;1.40;;
11651;SDS011;5882;48.818;9.114;2022-11-15T09:01:16;1.23;;;1.13;;
11651;SDS011;5882;48.818;9.114;2022-11-15T09:03:43;1.90;;;1.40;;
11651;SDS011;5882;48.818;9.114;2022-11-15T09:06:13;1.38;;;1.10;;
11651;SDS011;5882;48.818;9.114;2022-11-15T09:08:40;1.38;;;1.27;;
11651;SDS011;5882;48.818;9.114;2022-11-15T09:11:09;2.28;;;1.88;;
11651;SDS011;5882;48.818;9.114;2022-11-15T09:13:37;2.67;;;1.40;;
11651;SDS011;5882;48.818;9.114;2022-11-15T09:16:09;2.75;;;1.40;;
11651;SDS011;5882;48.818;9.114;2022-11-15T09:19:05;3.00;;;1.60;;
11651;SDS011;5882;48.818;9.114;2022-11-15T09:21:32;1.40;;;1.30;;
11651;SDS011;5882;48.818;9.114;2022-11-15T09:24:02;1.25;;;1.15;;
11651;SDS011;5882;48.818;9.114;2022-11-15T09:26:31;1.23;;;1.10;;
11651;SDS011;5882;48.818;9.114;2022-11-15T09:28:57;1.60;;;1.38;;
11651;SDS011;5882;48.818;9.114;2022-11-15T09:31:24;1.63;;;1.52;;
11651;SDS011;5882;48.818;9.114;2022-11-15T09:33:54;1.30;;;1.13;;
11651;SDS011;5882;48.818;9.114;2022-11-15T09:36:21;1.63;;;1.40;;
11651;SDS011;5882;48.818;9.114;2022-11-15T09:38:48;1.50;;;1.40;;
11651;SDS011;5882;48.818;9.114;2022-11-15T09:41:28;1.38;;;1.20;;
11651;SDS011;5882;48.818;9.114;2022-11-15T09:44:07;1.60;;;1.50;;
11651;SDS011;5882;48.818;9.114;2022-11-15T09:46:38;2.28;;;1.40;;
11651;SDS011;5882;48.818;9.114;2022-11-15T09:49:09;1.35;;;1.25;;
11651;SDS011;5882;48.818;9.114;2022-11-15T09:51:38;1.48;;;1.38;;
11651;SDS011;5882;48.818;9.114;2022-11-15T09:54:13;1.55;;;1.45;;
11651;SDS011;5882;48.818;9.114;2022-11-15T09:56:42;1.55;;;1.45;;
11651;SDS011;5882;48.818;9.114;2022-11-15T09:59:16;1.52;;;1.42;;
11651;SDS011;5882;48.818;9.114;2022-11-15T10:01:49;1.67;;;1.58;;
11651;SDS011;5882;48.818;9.114;2022-11-15T10:04:17;3.72;;;2.00;;
11651;SDS011;5882;48.818;9.114;2022-11-15T10:09:15;1.48;;;1.38;;
11651;SDS011;5882;48.818;9.114;2022-11-15T10:11:43;1.38;;;1.25;;
11651;SDS011;5882;48.818;9.114;2022-11-15T10:14:13;1.80;;;1.52;;
11651;SDS011;5882;48.818;9.114;2022-11-15T10:16:58;2.17;;;1.40;;
11651;SDS011;5882;48.818;9.114;2022-11-15T10:19:32;1.52;;;1.40;;
11651;SDS011;5882;48.818;9.114;2022-11-15T10:22:16;1.50;;;1.40;;
11651;SDS011;5882;48.818;9.114;2022-11-15T10:24:45;2.05;;;1.65;;
11651;SDS011;5882;48.818;9.114;2022-11-15T10:27:13;1.65;;;1.42;;
11651;SDS011;5882;48.818;9.114;2022-11-15T10:29:43;1.90;;;1.70;;
11651;SDS011;5882;48.818;9.114;2022-11-15T10:32:15;1.50;;;1.40;;
11651;SDS011;5882;48.818;9.114;2022-11-15T10:34:42;2.30;;;1.48;;
11651;SDS011;5882;48.818;9.114;2022-11-15T10:37:09;1.90;;;1.60;;
11651;SDS011;5882;48.818;9.114;2022-11-15T10:39:37;2.00;;;1.30;;
11651;SDS011;5882;48.818;9.114;2022-11-15T10:42:17;1.38;;;1.27;;
11651;SDS011;5882;48.818;9.114;2022-11-15T10:44:44;4.50;;;1.63;;
11651;SDS011;5882;48.818;9.114;2022-11-15T10:47:26;2.58;;;1.70;;
11651;SDS011;5882;48.818;9.114;2022-11-15T10:49:57;1.58;;;1.48;;
11651;SDS011;5882;48.818;9.114;2022-11-15T10:52:24;2.95;;;1.60;;
11651;SDS011;5882;48.818;9.114;2022-11-15T10:54:52;1.52;;;1.42;;
11651;SDS011;5882;48.818;9.114;2022-11-15T10:57:20;2.25;;;2.05;;
11651;SDS011;5882;48.818;9.114;2022-11-15T10:59:53;2.10;;;1.83;;
11651;SDS011;5882;48.818;9.114;2022-11-15T11:02:35;3.38;;;1.92;;
11651;SDS011;5882;48.818;9.114;2022-11-15T11:05:03;2.33;;;1.75;;
11651;SDS011;5882;48.818;9.114;2022-11-15T11:07:31;6.07;;;1.85;;
11651;SDS011;5882;48.818;9.114;2022-11-15T11:09:59;1.77;;;1.65;;
11651;SDS011;5882;48.818;9.114;2022-11-15T11:12:27;2.95;;;2.00;;
11651;SDS011;5882;48.818;9.114;2022-11-15T11:15:09;2.50;;;1.98;;
11651;SDS011;5882;48.818;9.114;2022-11-15T11:17:56;2.42;;;1.95;;
11651;SDS011;5882;48.818;9.114;2022-11-15T11:20:25;1.90;;;1.80;;
11651;SDS011;5882;48.818;9.114;2022-11-15T11:23:00;2.85;;;2.08;;
11651;SDS011;5882;48.818;9.114;2022-11-15T11:25:30;2.35;;;1.90;;
11651;SDS011;5882;48.818;9.114;2022-11-15T11:28:03;2.35;;;2.15;;
11651;SDS011;5882;48.818;9.114;2022-11-15T11:30:34;3.10;;;2.10;;
11651;SDS011;5882;48.818;9.114;2022-11-15T11:33:15;3.13;;;2.67;;
11651;SDS011;5882;48.818;9.114;2022-11-15T11:35:50;2.85;;;2.30;;
11651;SDS011;5882;48.818;9.114;2022-11-15T11:38:24;3.72;;;2.67;;
11651;SDS011;5882;48.818;9.114;2022-11-15T11:40:59;5.55;;;2.95;;
11651;SDS011;5882;48.818;9.114;2022-11-15T11:43:32;4.72;;;3.03;;
11651;SDS011;5882;48.818;9.114;2022-11-15T11:46:08;3.35;;;2.75;;
11651;SDS011;5882;48.818;9.114;2022-11-15T11:48:42;5.82;;;2.75;;
11651;SDS011;5882;48.818;9.114;2022-11-15T11:51:14;2.50;;;2.25;;
11651;SDS011;5882;48.818;9.114;2022-11-15T11:53:44;3.53;;;2.78;;
11651;SDS011;5882;48.818;9.114;2022-11-15T11:56:15;4.38;;;2.70;;
11651;SDS011;5882;48.818;9.114;2022-11-15T11:58:43;2.83;;;2.50;;
11651;SDS011;5882;48.818;9.114;2022-11-15T12:01:14;2.83;;;2.47;;
11651;SDS011;5882;48.818;9.114;2022-11-15T12:03:46;2.92;;;2.65;;
11651;SDS011;5882;48.818;9.114;2022-11-15T12:06:17;3.55;;;2.50;;
11651;SDS011;5882;48.818;9.114;2022-11-15T12:08:48;2.30;;;2.00;;
11651;SDS011;5882;48.818;9.114;2022-11-15T12:11:17;3.47;;;1.90;;
11651;SDS011;5882;48.818;9.114;2022-11-15T12:13:44;2.60;;;1.90;;
11651;SDS011;5882;48.818;9.114;2022-11-15T12:16:14;1.90;;;1.75;;
11651;SDS011;5882;48.818;9.114;2022-11-15T12:18:46;1.90;;;1.80;;
11651;SDS011;5882;48.818;9.114;2022-11-15T12:21:16;1.77;;;1.67;;
11651;SDS011;5882;48.818;9.114;2022-11-15T12:23:46;2.30;;;1.75;;
11651;SDS011;5882;48.818;9.114;2022-11-15T12:26:25;1.70;;;1.60;;
11651;SDS011;5882;48.818;9.114;2022-11-15T12:28:56;1.67;;;1.50;;
11651;SDS011;5882;48.818;9.114;2022-11-15T12:31:26;1.77;;;1.50;;
11651;SDS011;5882;48.818;9.114;2022-11-15T12:33:58;1.90;;;1.38;;
11651;SDS011;5882;48.818;9.114;2022-11-15T12:36:30;1.92;;;1.73;;
11651;SDS011;5882;48.818;9.114;2022-11-15T12:38:59;2.22;;;2.08;;
11651;SDS011;5882;48.818;9.114;2022-11-15T12:41:28;1.77;;;1.67;;
11651;SDS011;5882;48.818;9.114;2022-11-15T12:43:55;3.13;;;1.75;;
11651;SDS011;5882;48.818;9.114;2022-11-15T12:46:25;2.58;;;2.00;;
11651;SDS011;5882;48.818;9.114;2022-11-15T12:49:24;1.98;;;1.70;;
11651;SDS011;5882;48.818;9.114;2022-11-15T12:52:03;4.70;;;1.60;;
11651;SDS011;5882;48.818;9.114;2022-11-15T12:57:39;1.73;;;1.63;;
11651;SDS011;5882;48.818;9.114;2022-11-15T13:02:55;4.53;;;2.40;;
11651;SDS011;5882;48.818;9.114;2022-11-15T13:05:55;2.92;;;2.28;;
11651;SDS011;5882;48.818;9.114;2022-11-15T13:14:07;3.00;;;2.30;;
11651;SDS011;5882;48.818;9.114;2022-11-15T13:16:57;3.65;;;2.67;;
11651;SDS011;5882;48.818;9.114;2022-11-15T13:19:24;3.53;;;2.90;;
11651;SDS011;5882;48.818;9.114;2022-11-15T13:21:53;4.38;;;2.55;;
11651;SDS011;5882;48.818;9.114;2022-11-15T13:24:37;3.20;;;2.45;;
11651;SDS011;5882;48.818;9.114;2022-11-15T13:27:09;3.40;;;2.88;;
11651;SDS011;5882;48.818;9.114;2022-11-15T13:29:37;2.65;;;2.33;;
11651;SDS011;5882;48.818;9.114;2022-11-15T13:32:03;3.85;;;2.92;;
11651;SDS011;5882;48.818;9.114;2022-11-15T13:34:30;2.67;;;2.47;;
11651;SDS011;5882;48.818;9.114;2022-11-15T13:36:59;4.47;;;2.63;;
11651;SDS011;5882;48.818;9.114;2022-11-15T13:39:27;3.78;;;3.05;;
11651;SDS011;5882;48.818;9.114;2022-11-15T13:41:55;2.80;;;2.58;;
11651;SDS011;5882;48.818;9.114;2022-11-15T13:44:25;2.60;;;2.40;;
11651;SDS011;5882;48.818;9.114;2022-11-15T13:47:02;3.95;;;2.85;;
11651;SDS011;5882;48.818;9.114;2022-11-15T13:49:29;3.85;;;2.30;;
11651;SDS011;5882;48.818;9.114;2022-11-15T13:51:56;4.57;;;2.40;;
11651;SDS011;5882;48.818;9.114;2022-11-15T13:54:25;3.85;;;2.92;;
11651;SDS011;5882;48.818;9.114;2022-11-15T13:56:53;2.30;;;1.98;;
11651;SDS011;5882;48.818;9.114;2022-11-15T13:59:23;2.10;;;1.88;;
11651;SDS011;5882;48.818;9.114;2022-11-15T14:01:50;2.20;;;2.00;;
11651;SDS011;5882;48.818;9.114;2022-11-15T14:04:22;2.00;;;1.80;;
11651;SDS011;5882;48.818;9.114;2022-11-15T14:06:53;2.20;;;1.83;;
11651;SDS011;5882;48.818;9.114;2022-11-15T14:09:29;2.00;;;1.90;;
11651;SDS011;5882;48.818;9.114;2022-11-15T14:11:56;1.50;;;1.38;;
11651;SDS011;5882;48.818;9.114;2022-11-15T14:14:23;1.60;;;1.50;;
11651;SDS011;5882;48.818;9.114;2022-11-15T14:16:50;1.50;;;1.40;;
11651;SDS011;5882;48.818;9.114;2022-11-15T14:19:36;1.42;;;1.33;;
11651;SDS011;5882;48.818;9.114;2022-11-15T14:22:07;1.52;;;1.42;;
11651;SDS011;5882;48.818;9.114;2022-11-15T14:24:36;1.75;;;1.65;;
11651;SDS011;5882;48.818;9.114;2022-11-15T14:27:15;1.77;;;1.55;;
11651;SDS011;5882;48.818;9.114;2022-11-15T14:29:42;1.83;;;1.67;;
11651;SDS011;5882;48.818;9.114;2022-11-15T14:32:12;2.30;;;1.85;;
11651;SDS011;5882;48.818;9.114;2022-11-15T14:34:47;2.85;;;2.20;;
11651;SDS011;5882;48.818;9.114;2022-11-15T14:37:23;2.55;;;1.77;;
11651;SDS011;5882;48.818;9.114;2022-11-15T14:39:53;3.05;;;2.20;;
11651;SDS011;5882;48.818;9.114;2022-11-15T14:42:20;2.63;;;2.15;;
11651;SDS011;5882;48.818;9.114;2022-11-15T14:44:47;1.90;;;1.80;;
11651;SDS011;5882;48.818;9.114;2022-11-15T14:47:14;2.33;;;1.92;;
11651;SDS011;5882;48.818;9.114;2022-11-15T14:49:40;2.22;;;2.10;;
11651;SDS011;5882;48.818;9.114;2022-11-15T14:52:11;2.17;;;1.98;;
11651;SDS011;5882;48.818;9.114;2022-11-15T14:54:43;2.42;;;2.22;;
11651;SDS011;5882;48.818;9.114;2022-11-15T14:57:11;2.40;;;2.20;;
11651;SDS011;5882;48.818;9.114;2022-11-15T14:59:38;2.20;;;1.95;;
11651;SDS011;5882;48.818;9.114;2022-11-15T15:02:08;2.63;;;2.10;;
11651;SDS011;5882;48.818;9.114;2022-11-15T15:04:35;5.10;;;1.80;;
11651;SDS011;5882;48.818;9.114;2022-11-15T15:07:02;3.50;;;2.00;;
11651;SDS011;5882;48.818;9.114;2022-11-15T15:09:29;2.33;;;1.90;;
11651;SDS011;5882;48.818;9.114;2022-11-15T15:11:55;1.95;;;1.85;;
11651;SDS011;5882;48.818;9.114;2022-11-15T15:14:23;2.10;;;1.92;;
11651;SDS011;5882;48.818;9.114;2022-11-15T15:16:50;3.10;;;2.13;;
11651;SDS011;5882;48.818;9.114;2022-11-15T15:19:16;2.20;;;2.00;;
11651;SDS011;5882;48.818;9.114;2022-11-15T15:21:43;4.50;;;2.00;;
11651;SDS011;5882;48.818;9.114;2022-11-15T15:24:11;5.88;;;2.25;;
11651;SDS011;5882;48.818;9.114;2022-11-15T15:26:39;3.60;;;2.05;;
11651;SDS011;5882;48.818;9.114;2022-11-15T15:29:06;1.80;;;1.70;;
11651;SDS011;5882;48.818;9.114;2022-11-15T15:31:36;3.17;;;1.90;;
11651;SDS011;5882;48.818;9.114;2022-11-15T15:34:02;2.03;;;1.83;;